Latest Coastal Weather Observations for Point Stuart

IDD60701

Issued at 9:21 pm CST Friday 20 January 2017 (issued every 10 minutes, with the page automatically refreshed every 10 minutes)

About coastal observations | Map of coastal stations | Coastal observations for NT | Marine services | Other Formats
Station Details ID: 014254 Name: POINT STUART Lat: -12.24 Lon: 131.88 Height: 1.0 m
Data from the previous 72 hours. | See also: Recent months at Point Stuart
Date/Time
CST
Temp
°C
Wind Pressure Rain since
9am
mm
Weather Cloud Vis
km
Sea
Height
m
Swell
Dir  Spd
kts
Gust
kts
hPa Trend Height
m
Period
s
Dir
20/09:00pm 26.5 WSW 4 5 1008.9 - 3.0 - - - - - - -
20/08:30pm 26.6 WSW 3 5 1008.6 - 3.0 - - - - - - -
20/08:00pm 26.7 WSW 5 6 1008.2 - 3.0 - - - - - - -
20/07:30pm 26.9 WSW 7 8 1007.8 - 3.0 - - - - - - -
20/07:00pm 27.2 WSW 7 10 1007.5 - 3.0 - - - - - - -
20/06:30pm 27.6 W 10 13 1007.2 - 3.0 - - - - - - -
20/06:00pm 27.7 W 10 13 1007.1 - 3.0 - - - - - - -
20/05:30pm 27.5 W 12 16 1007.1 - 3.0 - - - - - - -
20/05:00pm 27.5 W 10 13 1007.1 - 2.8 - - - - - - -
20/04:30pm 27.0 W 8 12 1006.8 - 2.8 - - - - - - -
20/04:00pm 25.7 W 8 11 1006.9 - 2.8 - - - - - - -
20/03:30pm 25.6 W 17 23 1007.0 - 2.2 - - - - - - -
20/03:00pm 27.9 W 16 21 1007.0 - 1.2 - - - - - - -
20/02:30pm 29.8 WNW 9 14 1007.0 - 1.2 - - - - - - -
20/02:00pm 29.2 NW 10 14 1007.5 - 1.2 - - - - - - -
20/01:30pm 29.7 NW 7 11 1007.7 - 1.2 - - - - - - -
20/01:00pm 30.0 NW 8 13 1007.9 - 1.2 - - - - - - -
20/12:30pm 29.9 NW 8 11 1008.1 - 1.2 - - - - - - -
20/12:00pm 29.2 WNW 6 8 1008.3 - 1.2 - - - - - - -
20/11:30am 27.9 W 5 6 1008.7 - 1.0 - - - - - - -
20/11:00am 27.1 WSW 2 4 1009.1 - 1.0 - - - - - - -
20/10:30am 26.2 CALM 0 0 1009.7 - 1.0 - - - - - - -
20/10:00am 25.7 CALM 0 1 1009.9 - 1.0 - - - - - - -
20/09:30am 25.6 CALM 0 3 1009.5 - 0.6 - - - - - - -
20/09:00am 25.0 CALM 0 0 1009.5 - 32.0 - - - - - - -
20/08:30am 24.6 CALM 0 3 1009.3 - 31.2 - - - - - - -
20/08:00am 24.6 NNW 5 6 1009.1 - 29.6 - - - - - - -
20/07:30am 24.1 WNW 6 7 1008.9 - 28.6 - - - - - - -
20/07:00am 24.2 W 3 6 1008.8 - 27.4 - - - - - - -
20/06:30am 24.1 NW 12 17 1008.8 - 13.6 - - - - - - -
20/06:00am 24.6 SSE 7 9 1007.5 - 0.6 - - - - - - -
20/05:30am 24.7 ESE 5 8 1007.3 - 0.6 - - - - - - -
20/05:00am 25.0 ESE 5 6 1007.0 - 0.6 - - - - - - -
20/04:30am 25.1 ESE 6 7 1006.8 - 0.6 - - - - - - -
20/04:00am 25.3 ESE 5 6 1007.2 - 0.2 - - - - - - -
20/03:30am 25.4 ESE 4 7 1007.2 - 0.2 - - - - - - -
20/03:00am 25.8 SE 1 4 1007.5 - 0.2 - - - - - - -
20/02:30am 26.0 CALM 0 0 1007.5 - 0.2 - - - - - - -
20/02:00am 26.3 E 4 4 1007.7 - 0.2 - - - - - - -
20/01:30am 26.3 ENE 5 6 1007.9 - 0.2 - - - - - - -
20/01:00am 26.2 ENE 4 5 1008.3 - 0.2 - - - - - - -
20/12:30am 26.2 E 3 5 1008.4 - 0.0 - - - - - - -
20/12:00am 26.1 NE 3 4 1008.8 - 0.0 - - - - - - -
 
Date/Time
CST
Temp
°C
Wind Pressure Rain since
9am
mm
Weather Cloud Vis
km
Sea
Height
m
Swell
Dir  Spd
kts
Gust
kts
hPa Trend Height
m
Period
s
Dir
19/11:30pm 26.1 ENE 4 5 1009.0 - 0.0 - - - - - - -
19/11:00pm 26.0 ENE 4 5 1009.3 - 0.0 - - - - - - -
19/10:30pm 25.9 ENE 5 7 1009.5 - 0.0 - - - - - - -
19/10:00pm 25.9 S 2 5 1009.1 - 0.0 - - - - - - -
19/09:30pm 26.1 S 4 6 1009.0 - 0.0 - - - - - - -
19/09:00pm 26.1 SSW 6 7 1008.8 - 0.0 - - - - - - -
19/08:30pm 26.0 S 3 5 1008.6 - 0.0 - - - - - - -
19/08:00pm 26.0 S 5 7 1008.4 - 0.0 - - - - - - -
19/07:30pm 26.1 S 9 12 1008.2 - 0.0 - - - - - - -
19/07:00pm 29.0 W 13 17 1007.7 - 0.0 - - - - - - -
19/06:30pm 29.1 W 15 20 1007.1 - 0.0 - - - - - - -
19/06:00pm 29.6 WNW 15 20 1006.6 - 0.0 - - - - - - -
19/05:30pm 31.3 NW 14 18 1006.4 - 0.0 - - - - - - -
19/05:00pm 31.6 NW 15 19 1006.3 - 0.0 - - - - - - -
19/04:30pm 31.8 NW 12 16 1006.3 - 0.0 - - - - - - -
19/04:00pm 32.1 NW 11 15 1006.4 - 0.0 - - - - - - -
19/03:30pm 31.3 NNW 9 13 1006.8 - 0.0 - - - - - - -
19/03:00pm 31.2 NW 11 15 1007.4 - 0.0 - - - - - - -
19/02:30pm 32.0 NW 9 13 1007.7 - 0.0 - - - - - - -
19/02:00pm 30.5 WNW 10 14 1008.3 - 0.0 - - - - - - -
19/01:30pm 31.3 NW 8 13 1008.8 - 0.0 - - - - - - -
19/01:00pm 31.1 NW 9 12 1009.1 - 0.0 - - - - - - -
19/12:30pm 30.3 WNW 8 10 1009.2 - 0.0 - - - - - - -
19/12:00pm 30.2 NW 6 8 1009.6 - 0.0 - - - - - - -
19/11:30am 29.2 NNE 3 8 1009.8 - 0.0 - - - - - - -
19/11:00am 28.9 NE 4 7 1009.9 - 0.0 - - - - - - -
19/10:30am 29.3 NE 3 6 1010.0 - 0.0 - - - - - - -
19/10:00am 29.1 NE 3 7 1010.2 - 0.0 - - - - - - -
19/09:30am 28.8 ENE 3 5 1010.3 - 0.0 - - - - - - -
19/09:00am 27.8 E 4 5 1010.6 - 10.0 - - - - - - -
19/08:30am 27.0 CALM 0 3 1010.7 - 10.0 - - - - - - -
19/08:00am 26.5 CALM 0 0 1010.9 - 10.0 - - - - - - -
19/07:30am 26.0 CALM 0 0 1010.8 - 10.0 - - - - - - -
19/07:00am 25.1 SW 2 4 1010.4 - 10.0 - - - - - - -
19/06:30am 25.0 SW 4 4 1010.0 - 10.0 - - - - - - -
19/06:00am 25.2 WSW 4 5 1009.7 - 10.0 - - - - - - -
19/05:30am 25.2 SW 3 4 1009.3 - 10.0 - - - - - - -
19/05:00am 25.2 SSW 5 6 1008.8 - 10.0 - - - - - - -
19/04:30am 25.2 SSW 5 6 1008.6 - 10.0 - - - - - - -
19/04:00am 25.1 SSW 4 6 1008.5 - 10.0 - - - - - - -
19/03:30am 25.1 SW 4 5 1008.7 - 10.0 - - - - - - -
19/03:00am 25.2 SSW 4 6 1008.9 - 10.0 - - - - - - -
19/02:30am 25.2 SSW 4 6 1009.2 - 10.0 - - - - - - -
19/02:00am 25.2 SSW 4 5 1009.5 - 10.0 - - - - - - -
19/01:30am 25.3 CALM 0 2 1009.9 - 9.8 - - - - - - -
19/01:00am 25.4 SSW 3 4 1010.6 - 9.8 - - - - - - -
19/12:30am 25.6 SSW 5 6 1011.4 - 9.8 - - - - - - -
19/12:00am 25.8 S 5 6 1011.6 - 9.8 - - - - - - -
 
Date/Time
CST
Temp
°C
Wind Pressure Rain since
9am
mm
Weather Cloud Vis
km
Sea
Height
m
Swell
Dir  Spd
kts
Gust
kts
hPa Trend Height
m
Period
s
Dir
18/11:30pm 25.7 SSW 4 6 1011.9 - 9.8 - - - - - - -
18/11:00pm 25.6 SSW 5 7 1011.9 - 9.6 - - - - - - -
18/10:30pm 25.7 SSW 6 8 1011.8 - 9.2 - - - - - - -
18/10:00pm 25.9 SSW 6 8 1011.4 - 8.2 - - - - - - -
18/09:30pm 26.1 S 6 7 1011.4 - 8.0 - - - - - - -
18/09:00pm 26.2 WSW 7 9 1010.8 - 8.0 - - - - - - -
18/08:30pm 26.5 W 12 16 1010.2 - 7.8 - - - - - - -
18/08:00pm 26.3 W 11 15 1009.6 - 7.8 - - - - - - -
18/07:30pm 27.6 N 10 18 1009.7 - 0.4 - - - - - - -
18/07:00pm 29.0 N 7 11 1008.8 - 0.0 - - - - - - -
18/06:30pm 29.2 N 6 10 1008.7 - 0.0 - - - - - - -
18/06:00pm 29.4 N 5 8 1008.8 - 0.0 - - - - - - -
18/05:30pm 29.5 N 5 10 1008.5 - 0.0 - - - - - - -
18/05:00pm 29.1 N 7 10 1008.2 - 0.0 - - - - - - -
18/04:30pm 29.2 N 6 9 1008.3 - 0.0 - - - - - - -
18/04:00pm 29.1 N 7 11 1008.0 - 0.0 - - - - - - -
18/03:30pm 29.3 NNE 7 11 1008.0 - 0.0 - - - - - - -
18/03:00pm 29.5 N 7 11 1008.2 - 0.0 - - - - - - -
18/02:30pm 29.9 NNE 7 12 1008.2 - 0.0 - - - - - - -
18/02:00pm 30.6 N 6 9 1008.2 - 0.0 - - - - - - -
18/01:30pm 31.1 N 9 14 1008.8 - 0.0 - - - - - - -
18/01:00pm 32.3 N 8 14 1009.1 - 0.0 - - - - - - -
18/12:30pm 31.7 N 6 10 1009.3 - 0.0 - - - - - - -
18/12:00pm 32.1 NNW 6 9 1009.7 - 0.0 - - - - - - -
18/11:30am 32.6 NW 7 12 1010.2 - 0.0 - - - - - - -
18/11:00am 32.1 NW 6 9 1010.3 - 0.0 - - - - - - -
18/10:30am 31.8 NW 6 9 1010.4 - 0.0 - - - - - - -
18/10:00am 31.0 WNW 7 10 1010.6 - 0.0 - - - - - - -
18/09:30am 31.1 NW 6 9 1011.1 - 0.0 - - - - - - -
18/09:00am 30.5 NW 5 7 1011.1 - 0.0 - - - - - - -
18/08:30am 29.9 WNW 1 4 1010.7 - 0.0 - - - - - - -
18/08:00am 29.2 S 1 4 1010.7 - 0.0 - - - - - - -
18/07:30am 28.1 S 1 4 1010.4 - 0.0 - - - - - - -
18/07:00am 27.0 S 4 6 1010.2 - 0.0 - - - - - - -
18/06:30am 27.4 WNW 6 7 1009.4 - 0.0 - - - - - - -
18/06:00am 27.2 WNW 6 8 1009.0 - 0.0 - - - - - - -
18/05:30am 26.7 NW 5 7 1008.5 - 0.0 - - - - - - -
18/05:00am 26.8 NW 6 7 1008.0 - 0.0 - - - - - - -
18/04:30am 27.2 NW 6 8 1008.1 - 0.0 - - - - - - -
18/04:00am 27.7 NW 7 10 1008.2 - 0.0 - - - - - - -
18/03:30am 27.4 NW 6 8 1008.0 - 0.0 - - - - - - -
18/03:00am 27.7 WNW 6 8 1008.0 - 0.0 - - - - - - -
18/02:30am 27.8 NW 6 8 1008.1 - 0.0 - - - - - - -
18/02:00am 28.1 WNW 8 11 1008.3 - 0.0 - - - - - - -
18/01:30am 28.0 NW 9 11 1008.5 - 0.0 - - - - - - -
18/01:00am 28.1 NW 8 11 1008.7 - 0.0 - - - - - - -
18/12:30am 28.1 NW 9 12 1009.0 - 0.0 - - - - - - -
18/12:00am 28.3 NNW 9 12 1009.1 - 0.0 - - - - - - -
 
Date/Time
CST
Temp
°C
Wind Pressure Rain since
9am
mm
Weather Cloud Vis
km
Sea
Height
m
Swell
Dir  Spd
kts
Gust
kts
hPa Trend Height
m
Period
s
Dir
17/11:30pm 28.5 NNW 9 13 1009.5 - 0.0 - - - - - - -
17/11:00pm 28.6 NNW 11 15 1009.7 - 0.0 - - - - - - -
17/10:30pm 28.8 NNW 9 15 1009.8 - 0.0 - - - - - - -
17/10:00pm 28.9 NNW 7 11 1009.7 - 0.0 - - - - - - -
17/09:30pm 29.0 N 8 14 1009.5 - 0.0 - - - - - - -

Other Formats:

Comma delimited format used in spreadsheet applications
http://www.bom.gov.au/fwo/IDD60701/IDD60701.94127.axf

JavaScript Object Notation format (JSON) in row-major order
http://www.bom.gov.au/fwo/IDD60701/IDD60701.94127.json